Time;durP1;ratioP1;P1;durP2;ratioP2;P2;SDS_P1;SDS_P2;PMS_P1;PMS_P2;Temp;Humidity;BMP_temperature;BMP_pressure;BME280_temperature;BME280_humidity;BME280_pressure;Samples;Min_cycle;Max_cycle;Signal;HPM_P1;HPM_P2
2023/04/22 00:00:38;;;;;;;2.33;1.65;;;8.20;99.90;8.60;93481.00;;;;7403093;19;20617;-75
2023/04/22 00:03:12;;;;;;;1.90;1.70;;;8.20;99.90;8.80;93447.00;;;;7395494;19;20589;-77
2023/04/22 00:05:41;;;;;;;3.73;1.90;;;8.10;99.90;8.80;93478.00;;;;7400231;19;20229;-77
2023/04/22 00:08:15;;;;;;;3.30;1.73;;;8.10;99.90;8.60;93480.00;;;;7401572;19;20136;-77
2023/04/22 00:10:51;;;;;;;2.70;1.77;;;8.00;99.90;8.80;93477.00;;;;7401934;19;20133;-76
2023/04/22 00:13:32;;;;;;;3.83;1.63;;;8.10;99.90;8.80;93474.00;;;;7401041;19;20148;-76
2023/04/22 00:16:17;;;;;;;2.00;1.80;;;8.10;99.90;8.60;93479.00;;;;7400201;19;20129;-76
2023/04/22 00:18:45;;;;;;;2.50;1.80;;;8.10;99.90;8.60;93476.00;;;;7403238;19;20615;-77
2023/04/22 00:21:20;;;;;;;1.77;1.63;;;8.10;99.90;9.20;93462.00;;;;7401942;19;20152;-77
2023/04/22 00:23:48;;;;;;;2.60;1.80;;;8.30;1.00;9.70;93391.00;;;;7401649;19;20491;-76
2023/04/22 00:26:21;;;;;;;1.70;1.60;;;8.50;1.00;10.30;93475.00;;;;7401260;19;20141;-74
2023/04/22 00:28:48;;;;;;;2.13;1.93;;;8.90;99.90;10.70;93454.00;;;;7402603;19;20490;-76
2023/04/22 00:31:22;;;;;;;2.10;1.65;;;9.20;99.90;10.80;93457.00;;;;7399011;19;20596;-76
2023/04/22 00:33:49;;;;;;;2.28;1.63;;;9.50;99.90;10.70;93475.00;;;;7400522;19;20644;-74
2023/04/22 00:36:23;;;;;;;3.67;1.60;;;9.60;99.90;10.80;93454.00;;;;7400191;19;20209;-75
2023/04/22 00:38:57;;;;;;;2.83;1.70;;;9.70;99.90;10.70;93427.00;;;;7402142;19;20145;-76
2023/04/22 00:41:31;;;;;;;1.50;1.40;;;9.70;99.90;10.60;93438.00;;;;7400179;19;20148;-76
2023/04/22 00:44:09;;;;;;;4.28;1.35;;;9.70;99.90;10.30;93465.00;;;;7401115;19;20599;-77
2023/04/22 00:46:44;;;;;;;2.03;1.80;;;9.70;99.90;10.40;93463.00;;;;7399563;19;20608;-74
2023/04/22 00:49:13;;;;;;;2.53;1.70;;;9.60;99.90;10.80;93456.00;;;;7400053;19;20168;-75
2023/04/22 00:51:47;;;;;;;2.90;1.77;;;9.70;99.90;10.50;93455.00;;;;7398882;19;20608;-75
2023/04/22 00:54:14;;;;;;;1.48;1.35;;;9.70;99.90;10.50;93424.00;;;;7402096;19;20129;-75
2023/04/22 00:56:48;;;;;;;2.28;1.63;;;9.70;99.90;10.50;93395.00;;;;7395651;19;20192;-76
2023/04/22 00:59:15;;;;;;;1.58;1.48;;;9.70;99.90;10.30;93380.00;;;;7391448;19;20204;-76
2023/04/22 01:01:50;;;;;;;2.30;1.77;;;9.70;99.90;10.20;93444.00;;;;7399974;19;20204;-77
2023/04/22 01:04:19;;;;;;;3.55;1.58;;;9.60;99.90;10.20;93393.00;;;;7399447;19;20635;-78
2023/04/22 01:06:53;;;;;;;2.22;1.73;;;9.60;99.90;10.30;93441.00;;;;7401659;19;20184;-78
2023/04/22 01:09:27;;;;;;;1.83;1.63;;;9.50;99.90;10.20;93457.00;;;;7402504;19;20861;-78
2023/04/22 01:11:56;;;;;;;1.75;1.65;;;9.50;99.90;10.50;93431.00;;;;7399112;19;20148;-79
2023/04/22 01:14:37;;;;;;;1.40;1.27;;;9.60;99.90;10.10;93450.00;;;;7398384;19;20168;-77
2023/04/22 01:17:08;;;;;;;1.73;1.60;;;9.50;99.90;9.90;93431.00;;;;7399446;19;20169;-77
2023/04/22 01:19:43;;;;;;;1.73;1.40;;;9.40;99.90;9.90;93443.00;;;;7397810;19;20148;-77
2023/04/22 01:22:21;;;;;;;3.17;1.75;;;9.40;99.90;9.60;93467.00;;;;7399569;19;20620;-78
2023/04/22 01:24:55;;;;;;;1.60;1.50;;;9.30;99.90;9.70;93473.00;;;;7397629;19;20595;-79
2023/04/22 01:27:29;;;;;;;1.90;1.52;;;9.20;99.90;9.50;93455.00;;;;7399271;19;20158;-78
2023/04/22 01:29:57;;;;;;;5.50;2.03;;;9.10;99.90;9.50;93446.00;;;;7398760;19;20129;-78
2023/04/22 01:32:32;;;;;;;2.55;1.50;;;9.00;99.90;9.40;93470.00;;;;7399306;19;20161;-77
2023/04/22 01:35:00;;;;;;;2.85;1.30;;;8.90;99.90;9.40;93468.00;;;;7399004;19;20133;-79
2023/04/22 01:37:34;;;;;;;1.77;1.27;;;8.90;99.90;9.30;93474.00;;;;7398282;19;20483;-77
2023/04/22 01:40:03;;;;;;;2.25;1.48;;;8.90;99.90;9.10;93472.00;;;;7399123;19;20151;-77
2023/04/22 01:42:37;;;;;;;2.35;1.50;;;8.70;99.90;8.80;93450.00;;;;7398044;19;20471;-77
2023/04/22 01:45:06;;;;;;;1.40;1.23;;;8.70;1.00;9.00;93456.00;;;;7391843;19;20140;-77
2023/04/22 01:47:40;;;;;;;1.67;1.52;;;8.50;99.90;9.30;93466.00;;;;7396675;19;20212;-78
2023/04/22 01:50:14;;;;;;;1.50;1.40;;;8.60;99.90;8.80;93468.00;;;;7398056;19;20137;-78
2023/04/22 01:52:41;;;;;;;1.57;1.47;;;8.50;1.00;8.90;93472.00;;;;7396587;19;20569;-78
2023/04/22 01:55:15;;;;;;;3.03;1.63;;;8.50;1.00;8.80;93465.00;;;;7397866;19;20129;-80
2023/04/22 01:57:43;;;;;;;2.43;1.50;;;8.40;1.00;8.90;93469.00;;;;7393860;19;20216;-77
2023/04/22 02:00:18;;;;;;;2.77;1.77;;;8.30;1.00;9.00;93478.00;;;;7398175;19;20596;-78
2023/04/22 02:02:52;;;;;;;2.20;2.00;;;8.30;1.00;9.10;93458.00;;;;7398086;19;20148;-77
2023/04/22 02:05:29;;;;;;;2.30;1.87;;;8.40;1.00;9.20;93477.00;;;;7396629;19;20152;-77
2023/04/22 02:08:05;;;;;;;5.38;2.10;;;8.40;1.00;9.20;93487.00;;;;7398939;19;20140;-76
2023/04/22 02:10:39;;;;;;;2.63;1.93;;;8.40;1.00;9.10;93475.00;;;;7398372;19;20196;-78
2023/04/22 02:13:06;;;;;;;2.20;2.00;;;8.50;1.00;9.30;93477.00;;;;7398068;19;20132;-75
2023/04/22 02:15:46;;;;;;;6.07;2.05;;;8.50;1.00;9.30;93423.00;;;;7394799;19;20180;-78
2023/04/22 02:18:13;;;;;;;5.00;2.30;;;8.50;1.00;9.50;93461.00;;;;7397014;19;20146;-78
2023/04/22 02:20:47;;;;;;;2.58;2.15;;;8.60;1.00;9.70;93479.00;;;;7399561;19;20144;-79
2023/04/22 02:23:21;;;;;;;3.20;2.08;;;8.60;1.00;9.40;93469.00;;;;7397710;19;20611;-78
2023/04/22 02:25:55;;;;;;;5.00;2.20;;;8.60;1.00;9.30;93464.00;;;;7396574;19;20151;-80
2023/04/22 02:28:29;;;;;;;3.97;2.30;;;8.60;1.00;9.30;93480.00;;;;7397022;19;20143;-79
2023/04/22 02:30:56;;;;;;;2.88;2.25;;;8.60;1.00;9.40;93478.00;;;;7398533;19;20145;-79
2023/04/22 02:33:30;;;;;;;3.60;2.67;;;8.60;1.00;9.60;93481.00;;;;7396191;19;20136;-79
2023/04/22 02:36:00;;;;;;;4.40;2.30;;;8.60;1.00;9.30;93483.00;;;;7397411;19;20129;-80
2023/04/22 02:38:37;;;;;;;3.40;3.05;;;8.60;1.00;9.20;93485.00;;;;7397168;19;20152;-78
2023/04/22 02:41:04;;;;;;;4.27;2.47;;;8.60;1.00;9.10;93458.00;;;;7396922;19;20491;-78
2023/04/22 02:43:38;;;;;;;4.50;3.17;;;8.40;1.00;9.20;93476.00;;;;7398481;19;20596;-79
2023/04/22 02:46:05;;;;;;;4.20;3.37;;;8.40;90.00;9.10;93482.00;;;;7397603;19;20490;-77
2023/04/22 02:48:39;;;;;;;5.77;3.40;;;8.40;99.90;9.20;93479.00;;;;7396608;19;20146;-79
2023/04/22 02:51:13;;;;;;;6.67;3.07;;;8.40;99.90;9.30;93459.00;;;;7397329;19;20156;-78
2023/04/22 02:53:40;;;;;;;3.83;3.37;;;8.50;99.90;9.50;93440.00;;;;7397354;19;20585;-78
2023/04/22 02:56:15;;;;;;;4.63;3.80;;;8.60;99.90;9.60;93464.00;;;;7396168;19;20140;-78
2023/04/22 02:58:45;;;;;;;4.37;3.97;;;8.60;99.90;9.90;93442.00;;;;7392553;19;20161;-78
2023/04/22 03:01:19;;;;;;;4.75;3.53;;;8.80;99.90;10.00;93440.00;;;;7395752;19;20133;-74
2023/04/22 03:03:46;;;;;;;4.20;3.67;;;8.90;99.90;10.30;93479.00;;;;7393580;19;20210;-76
2023/04/22 03:06:21;;;;;;;4.90;3.80;;;9.10;99.90;10.30;93486.00;;;;7395547;19;20155;-75
2023/04/22 03:08:50;;;;;;;5.60;3.60;;;9.20;40.60;10.40;93481.00;;;;7401834;19;20139;-76
2023/04/22 03:11:24;;;;;;;6.10;3.38;;;9.40;1.00;10.50;93452.00;;;;7403838;19;20151;-74
2023/04/22 03:13:51;;;;;;;4.05;3.65;;;9.50;1.00;10.50;93485.00;;;;7403697;19;20132;-76
2023/04/22 03:16:31;;;;;;;4.65;3.88;;;9.50;1.00;10.40;93486.00;;;;7403080;19;20133;-76
2023/04/22 03:19:05;;;;;;;6.53;3.70;;;9.50;1.00;10.30;93454.00;;;;7405170;19;20149;-76
2023/04/22 03:21:39;;;;;;;6.47;3.97;;;9.50;13.50;10.10;93487.00;;;;7404991;19;20587;-74
2023/04/22 03:24:13;;;;;;;7.53;4.07;;;9.50;17.00;10.10;93479.00;;;;7401751;19;20142;-74
2023/04/22 03:26:52;;;;;;;4.78;4.15;;;9.40;99.90;9.90;93504.00;;;;7402463;19;20153;-74
2023/04/22 03:29:26;;;;;;;6.68;3.97;;;9.30;99.90;9.70;93444.00;;;;7403792;19;20154;-75
2023/04/22 03:32:01;;;;;;;5.03;4.00;;;9.20;99.90;9.60;93481.00;;;;7401007;19;20152;-76
2023/04/22 03:34:28;;;;;;;5.63;3.95;;;9.10;99.90;9.60;93494.00;;;;7405411;19;20208;-73
2023/04/22 03:37:03;;;;;;;5.13;3.88;;;9.00;1.00;9.60;93419.00;;;;7403202;19;20158;-75
2023/04/22 03:39:30;;;;;;;7.37;4.50;;;8.90;1.00;9.70;93447.00;;;;7403204;19;20129;-76
2023/04/22 03:42:04;;;;;;;6.38;5.07;;;8.90;1.00;9.80;93498.00;;;;7402350;19;20167;-74
2023/04/22 03:44:38;;;;;;;7.72;6.53;;;8.90;1.00;10.00;93459.00;;;;7403532;19;20679;-76
2023/04/22 03:47:12;;;;;;;6.23;5.10;;;9.00;1.00;10.00;93485.00;;;;7402555;19;20501;-76
2023/04/22 03:49:46;;;;;;;6.60;5.33;;;9.10;1.00;10.20;93491.00;;;;7404357;19;20128;-75
2023/04/22 03:52:20;;;;;;;7.67;4.70;;;9.20;1.00;10.10;93492.00;;;;7402231;19;20157;-75
2023/04/22 03:54:56;;;;;;;9.77;6.83;;;9.20;1.00;10.00;93394.00;;;;7402048;19;20145;-74
2023/04/22 03:57:25;;;;;;;8.52;5.80;;;9.20;5.70;10.10;93481.00;;;;7399551;19;20129;-73
2023/04/22 03:59:59;;;;;;;10.10;7.00;;;9.20;1.00;10.10;93438.00;;;;7401932;19;20588;-76
2023/04/22 04:02:26;;;;;;;13.85;7.57;;;9.20;1.00;10.10;93488.00;;;;7400204;19;20172;-75
2023/04/22 04:05:01;;;;;;;9.57;6.73;;;9.20;48.40;10.10;93472.00;;;;7403190;19;20132;-74
2023/04/22 04:07:35;;;;;;;10.73;6.63;;;9.20;68.00;10.20;93476.00;;;;7403370;19;20152;-75
2023/04/22 04:10:11;;;;;;;9.63;7.82;;;9.20;99.90;10.30;93491.00;;;;7404054;19;20141;-77
2023/04/22 04:12:45;;;;;;;9.93;8.05;;;9.30;99.90;10.40;93483.00;;;;7401090;19;20132;-75
2023/04/22 04:15:34;;;;;;;8.70;6.97;;;9.30;99.90;10.40;93473.00;;;;7398736;19;20691;-75
2023/04/22 04:18:08;;;;;;;10.70;6.90;;;9.40;49.00;10.30;93476.00;;;;7402925;19;20128;-75
2023/04/22 04:20:42;;;;;;;11.43;6.53;;;9.40;3.70;10.30;93476.00;;;;7402296;19;20163;-77
2023/04/22 04:23:09;;;;;;;7.20;5.88;;;9.40;1.00;10.10;93462.00;;;;7401966;19;20530;-75
2023/04/22 04:25:44;;;;;;;7.22;5.85;;;9.40;1.00;10.10;93423.00;;;;7401625;19;20129;-75
2023/04/22 04:28:12;;;;;;;7.70;5.80;;;9.30;1.00;10.30;93485.00;;;;7402728;19;20153;-74
2023/04/22 04:30:46;;;;;;;7.10;5.45;;;9.40;1.00;10.40;93469.00;;;;7402608;19;20162;-75
2023/04/22 04:33:20;;;;;;;7.57;4.72;;;9.40;99.90;10.40;93443.00;;;;7389361;19;20136;-74
2023/04/22 04:35:54;;;;;;;8.32;4.47;;;9.40;99.90;10.40;93453.00;;;;7379204;19;20212;-74
2023/04/22 04:38:21;;;;;;;7.30;3.67;;;9.50;99.90;10.40;93461.00;;;;7382708;19;20152;-75
2023/04/22 04:40:55;;;;;;;7.10;3.85;;;9.50;99.90;10.50;93425.00;;;;7384249;19;20132;-75
2023/04/22 04:43:24;;;;;;;5.93;3.60;;;9.50;1.00;10.50;93440.00;;;;7386202;19;20645;-75
2023/04/22 04:45:58;;;;;;;3.90;3.22;;;9.50;1.00;10.60;93427.00;;;;7384528;19;20635;-78
2023/04/22 04:48:25;;;;;;;3.25;2.53;;;9.40;1.00;10.60;93447.00;;;;7385779;19;20157;-77
2023/04/22 04:50:59;;;;;;;3.13;2.50;;;9.50;1.00;10.60;93457.00;;;;7383253;19;20128;-73
2023/04/22 04:53:26;;;;;;;4.70;2.45;;;9.50;1.00;10.70;93376.00;;;;7378939;19;20151;-76
2023/04/22 04:55:53;;;;;;;5.00;2.28;;;9.60;99.90;10.60;93415.00;;;;7382639;19;20132;-78
2023/04/22 04:58:29;;;;;;;2.58;2.10;;;9.60;99.90;10.80;93449.00;;;;7370737;19;20158;-76
2023/04/22 05:00:56;;;;;;;3.15;2.10;;;9.70;99.90;10.80;93402.00;;;;7379039;19;20672;-77
2023/04/22 05:03:30;;;;;;;2.10;1.90;;;9.80;99.90;10.90;93451.00;;;;7371659;19;20177;-77
2023/04/22 05:05:57;;;;;;;4.35;1.80;;;9.90;99.90;11.00;93450.00;;;;7379431;19;20143;-75
2023/04/22 05:08:32;;;;;;;1.70;1.60;;;9.90;93.30;11.10;93438.00;;;;7378810;19;20125;-77
2023/04/22 05:11:07;;;;;;;2.35;2.00;;;10.00;61.10;11.10;93455.00;;;;7375633;19;20152;-76
2023/04/22 05:13:41;;;;;;;2.17;1.60;;;10.00;16.40;11.10;93452.00;;;;7379937;19;20128;-74
2023/04/22 05:16:14;;;;;;;1.77;1.52;;;10.10;3.50;11.30;93425.00;;;;7379154;19;20172;-75
2023/04/22 05:18:48;;;;;;;2.50;1.50;;;10.10;1.00;11.20;93408.00;;;;7377870;19;20148;-76
2023/04/22 05:21:19;;;;;;;4.63;1.55;;;10.10;1.00;11.10;93459.00;;;;7376306;19;20144;-76
2023/04/22 05:23:46;;;;;;;1.83;1.52;;;10.10;1.00;11.20;93415.00;;;;7378304;19;20140;-76
2023/04/22 05:26:20;;;;;;;4.65;1.70;;;10.10;1.00;11.20;93433.00;;;;7375519;19;20152;-75
2023/04/22 05:28:47;;;;;;;1.92;1.42;;;10.10;1.00;11.40;93452.00;;;;7373674;19;20158;-75
2023/04/22 05:31:21;;;;;;;3.70;1.35;;;10.20;1.00;11.40;93430.00;;;;7378510;19;20453;-74
2023/04/22 05:33:49;;;;;;;1.88;1.58;;;10.20;1.00;11.60;93434.00;;;;7376893;19;20148;-75
2023/04/22 05:36:23;;;;;;;2.38;1.65;;;10.30;1.00;11.70;93444.00;;;;7377006;19;20216;-73
2023/04/22 05:38:57;;;;;;;1.63;1.38;;;10.40;1.00;11.80;93447.00;;;;7381283;19;20153;-75
2023/04/22 05:41:32;;;;;;;2.05;1.30;;;10.50;1.00;12.10;93450.00;;;;7381400;19;20132;-75
2023/04/22 05:44:06;;;;;;;3.00;1.65;;;10.80;1.00;12.30;93422.00;;;;7381774;19;20592;-75
2023/04/22 05:46:33;;;;;;;1.40;1.30;;;10.90;1.00;12.30;93454.00;;;;7378167;19;21876;-73
2023/04/22 05:49:07;;;;;;;1.30;1.20;;;11.10;1.00;12.40;93440.00;;;;7378803;19;20222;-75
2023/04/22 05:51:42;;;;;;;1.50;1.40;;;11.20;1.00;12.50;93467.00;;;;7376044;19;20185;-75
2023/04/22 05:54:09;;;;;;;1.80;1.17;;;11.30;1.00;13.00;93442.00;;;;7378054;19;20189;-75
2023/04/22 05:56:43;;;;;;;2.45;1.15;;;11.40;1.00;13.10;93462.00;;;;7372729;19;20128;-75
2023/04/22 05:59:10;;;;;;;3.67;1.50;;;11.60;1.00;13.10;93426.00;;;;7380073;19;20737;-74
2023/04/22 06:01:46;;;;;;;1.52;1.10;;;11.80;1.00;13.20;93470.00;;;;7374987;19;20148;-75
2023/04/22 06:04:13;;;;;;;1.88;1.10;;;11.80;1.00;13.40;93470.00;;;;7376182;19;20124;-75
2023/04/22 06:06:48;;;;;;;1.73;1.45;;;12.00;1.00;13.80;93431.00;;;;7371771;19;20223;-75
2023/04/22 06:09:15;;;;;;;1.52;1.42;;;12.10;1.00;13.70;93458.00;;;;7379475;19;20125;-75
2023/04/22 06:11:49;;;;;;;1.50;1.40;;;12.30;1.00;13.60;93468.00;;;;7375875;19;20147;-73
2023/04/22 06:14:24;;;;;;;3.17;1.60;;;12.20;1.00;13.20;93483.00;;;;7379221;19;20178;-75
2023/04/22 06:17:04;;;;;;;1.88;1.52;;;12.20;1.00;13.10;93480.00;;;;7377499;19;20627;-73
2023/04/22 06:19:34;;;;;;;1.67;1.40;;;12.10;1.00;13.10;93450.00;;;;7377778;19;20631;-75
2023/04/22 06:22:08;;;;;;;1.52;1.40;;;11.90;1.00;13.10;93495.00;;;;7372391;19;20588;-74
2023/04/22 06:24:35;;;;;;;1.25;1.15;;;11.90;1.00;12.90;93488.00;;;;7376502;19;20608;-74
2023/04/22 06:27:09;;;;;;;1.40;1.30;;;11.80;1.00;12.90;93489.00;;;;7373859;19;20623;-74
2023/04/22 06:29:36;;;;;;;1.35;1.20;;;11.70;1.00;12.70;93498.00;;;;7375044;19;20189;-73
2023/04/22 06:32:19;;;;;;;1.85;1.20;;;11.60;1.00;12.70;93456.00;;;;7374045;19;20145;-72
2023/04/22 06:35:13;;;;;;;2.45;1.30;;;11.60;1.00;12.90;93474.00;;;;7374861;19;20144;-74
2023/04/22 06:37:57;;;;;;;1.90;1.17;;;11.60;1.00;13.00;93468.00;;;;7375812;19;20196;-76
2023/04/22 06:40:25;;;;;;;1.52;1.10;;;11.60;1.00;13.10;93475.00;;;;7374811;19;20139;-75
2023/04/22 06:43:01;;;;;;;2.55;1.40;;;11.60;1.00;13.50;93453.00;;;;7371612;19;20144;-74
2023/04/22 06:45:35;;;;;;;1.70;1.25;;;11.80;1.00;14.00;93486.00;;;;7372177;19;23248;-75
2023/04/22 06:48:09;;;;;;;1.83;1.30;;;11.90;1.00;14.30;93459.00;;;;7370966;19;20148;-75
2023/04/22 06:50:43;;;;;;;1.20;1.10;;;12.10;1.00;14.60;93464.00;;;;7373733;19;20148;-72
2023/04/22 06:53:17;;;;;;;1.63;1.30;;;12.20;1.00;14.40;93477.00;;;;7372237;19;20145;-75
2023/04/22 06:55:53;;;;;;;2.72;1.42;;;12.40;1.00;14.50;93446.00;;;;7372890;19;20143;-75
2023/04/22 06:58:28;;;;;;;1.83;1.30;;;12.50;1.00;14.80;93463.00;;;;7368832;19;20133;-75
2023/04/22 07:01:02;;;;;;;1.33;1.10;;;12.60;1.00;14.70;93443.00;;;;7376199;19;20163;-74
2023/04/22 07:03:36;;;;;;;1.30;1.10;;;12.80;1.00;14.90;93400.00;;;;7374909;19;20147;-72
2023/04/22 07:06:05;;;;;;;1.55;1.20;;;13.00;1.00;15.40;93460.00;;;;7370857;19;20481;-77
2023/04/22 07:08:41;;;;;;;3.05;1.27;;;13.10;1.00;15.70;93473.00;;;;7373967;19;20133;-77
2023/04/22 07:11:15;;;;;;;1.67;1.40;;;13.30;1.00;15.40;93397.00;;;;7370938;19;21759;-75
2023/04/22 07:13:45;;;;;;;1.65;1.13;;;13.30;1.00;15.10;93464.00;;;;7374051;19;20514;-74
2023/04/22 07:16:19;;;;;;;1.27;1.05;;;13.30;1.00;15.10;93480.00;;;;7374935;19;20188;-74
2023/04/22 07:18:59;;;;;;;1.48;1.27;;;13.20;1.00;14.80;93459.00;;;;7376987;19;20453;-73
2023/04/22 07:21:33;;;;;;;1.20;1.00;;;13.10;1.00;15.00;93432.00;;;;7374977;19;20155;-76
2023/04/22 07:24:10;;;;;;;1.52;1.42;;;13.20;1.00;15.50;93478.00;;;;7373526;19;20129;-74
2023/04/22 07:26:44;;;;;;;2.60;1.30;;;13.30;1.00;16.10;93484.00;;;;7374210;19;20200;-75
2023/04/22 07:29:18;;;;;;;2.25;1.13;;;13.60;1.00;16.10;93469.00;;;;7374087;19;20484;-74
2023/04/22 07:31:52;;;;;;;3.03;1.33;;;13.80;1.00;16.40;93479.00;;;;7372812;19;20504;-74
2023/04/22 07:34:20;;;;;;;2.05;1.00;;;14.20;1.00;16.90;93452.00;;;;7373412;19;20152;-73
2023/04/22 07:36:54;;;;;;;1.73;1.13;;;14.30;1.00;16.60;93499.00;;;;7372758;19;20133;-74
2023/04/22 07:39:24;;;;;;;3.22;1.50;;;14.50;1.00;16.30;93483.00;;;;7371196;19;20148;-75
2023/04/22 07:42:01;;;;;;;1.90;1.05;;;14.40;1.00;15.90;93413.00;;;;7372284;19;20584;-76
2023/04/22 07:44:28;;;;;;;1.25;1.05;;;14.30;1.00;15.90;93496.00;;;;7373820;19;20132;-75
2023/04/22 07:47:07;;;;;;;1.13;1.02;;;14.20;1.00;16.00;93475.00;;;;7374501;19;20178;-74
2023/04/22 07:49:34;;;;;;;3.25;1.15;;;14.00;1.00;16.00;93471.00;;;;7371610;19;20176;-75
2023/04/22 07:52:08;;;;;;;1.40;1.15;;;14.00;1.00;15.90;93487.00;;;;7370350;19;20160;-75
2023/04/22 07:54:35;;;;;;;1.23;1.13;;;14.10;1.00;16.60;93479.00;;;;7375819;19;20144;-72
2023/04/22 07:57:09;;;;;;;1.85;1.10;;;14.30;1.00;17.30;93455.00;;;;7379628;19;20137;-73
2023/04/22 07:59:44;;;;;;;1.20;1.10;;;14.60;1.00;17.90;93479.00;;;;7382904;19;20581;-74
2023/04/22 08:02:18;;;;;;;1.23;1.13;;;15.00;1.00;18.20;93439.00;;;;7380265;19;20647;-73
2023/04/22 08:04:45;;;;;;;3.60;1.20;;;15.40;1.00;18.60;93433.00;;;;7376962;19;20124;-73
2023/04/22 08:07:19;;;;;;;1.15;1.05;;;15.70;1.00;19.00;93456.00;;;;7377879;19;20576;-73
2023/04/22 08:09:51;;;;;;;2.10;1.48;;;16.00;1.00;19.20;93465.00;;;;7380110;19;20156;-73
2023/04/22 08:12:24;;;;;;;1.30;1.20;;;16.30;1.00;19.50;93465.00;;;;7382454;19;20129;-72
2023/04/22 08:14:58;;;;;;;1.63;1.10;;;16.60;1.00;20.00;93466.00;;;;7374387;19;20601;-74
2023/04/22 08:17:39;;;;;;;1.20;1.08;;;17.00;1.00;20.80;93418.00;;;;7378028;19;20635;-74
2023/04/22 08:20:14;;;;;;;1.45;1.13;;;17.20;1.00;20.70;93466.00;;;;7379732;19;20128;-75
2023/04/22 08:22:59;;;;;;;1.75;1.02;;;17.70;1.00;20.50;93441.00;;;;7377765;19;20125;-74
2023/04/22 08:25:34;;;;;;;2.30;1.30;;;18.00;1.00;21.20;93464.00;;;;7379814;19;20770;-76
2023/04/22 08:28:09;;;;;;;1.83;1.30;;;18.40;1.00;21.40;93438.00;;;;7379083;19;20136;-74
2023/04/22 08:30:38;;;;;;;4.68;1.40;;;18.70;1.00;21.80;93424.00;;;;7379917;19;20136;-74
2023/04/22 08:33:12;;;;;;;1.50;1.40;;;18.90;1.00;21.70;93449.00;;;;7382130;19;20195;-74
2023/04/22 08:35:39;;;;;;;2.10;1.38;;;18.90;1.00;22.00;93341.00;;;;7380571;19;20609;-75
2023/04/22 08:38:14;;;;;;;1.50;1.40;;;19.10;1.00;22.30;93410.00;;;;7382125;19;21221;-74
2023/04/22 08:40:42;;;;;;;1.92;1.30;;;19.00;1.00;22.10;93391.00;;;;7381186;19;20589;-75
2023/04/22 08:43:17;;;;;;;1.77;1.23;;;19.20;99.90;22.10;93424.00;;;;7380117;19;20140;-74
2023/04/22 08:45:51;;;;;;;2.17;1.40;;;19.10;1.00;22.10;93448.00;;;;7374916;19;20464;-73
2023/04/22 08:48:25;;;;;;;3.30;1.30;;;19.40;1.00;21.90;93468.00;;;;7375902;19;20124;-74
2023/04/22 08:50:53;;;;;;;1.15;1.05;;;19.60;1.00;22.50;93462.00;;;;7379498;19;20503;-74
2023/04/22 08:53:22;;;;;;;3.50;1.25;;;19.80;1.00;22.50;93448.00;;;;7379971;19;20632;-76
2023/04/22 08:56:04;;;;;;;2.28;1.30;;;19.80;1.00;22.20;93457.00;;;;7378340;19;20125;-76
2023/04/22 08:58:41;;;;;;;4.90;1.63;;;19.90;1.00;21.50;93421.00;;;;7375292;19;20526;-73
2023/04/22 09:01:16;;;;;;;4.38;1.58;;;19.70;99.90;21.60;93417.00;;;;7378458;19;20611;-74
2023/04/22 09:03:46;;;;;;;3.15;1.60;;;19.70;1.00;21.50;93460.00;;;;7381931;19;20187;-75
2023/04/22 09:06:21;;;;;;;3.67;1.95;;;19.60;1.00;21.30;93426.00;;;;7373358;19;21636;-73
2023/04/22 09:08:57;;;;;;;2.28;1.38;;;19.40;99.90;21.40;93447.00;;;;7379312;19;20132;-74
2023/04/22 09:11:33;;;;;;;4.57;1.52;;;19.50;99.90;22.30;93433.00;;;;7377925;19;20155;-75
2023/04/22 09:14:08;;;;;;;1.60;1.50;;;19.80;1.00;23.10;93433.00;;;;7377928;19;20484;-74
2023/04/22 09:16:48;;;;;;;4.05;1.88;;;19.90;1.00;23.60;93423.00;;;;7377055;19;20190;-74
2023/04/22 09:19:16;;;;;;;2.03;1.90;;;20.20;99.90;23.10;93421.00;;;;7377807;19;20159;-75
2023/04/22 09:21:51;;;;;;;2.33;1.90;;;20.60;1.00;23.20;93439.00;;;;7375565;19;20998;-75
2023/04/22 09:24:22;;;;;;;8.10;2.55;;;20.70;99.90;22.60;93452.00;;;;7377881;19;20148;-74
2023/04/22 09:26:56;;;;;;;4.75;2.70;;;20.60;99.90;22.10;93395.00;;;;7377665;19;20515;-73
2023/04/22 09:29:30;;;;;;;4.53;2.22;;;20.30;1.00;22.60;93431.00;;;;7378289;19;20137;-74
2023/04/22 09:32:10;;;;;;;2.90;2.00;;;20.30;1.00;22.90;93428.00;;;;7380166;19;20150;-74
2023/04/22 09:35:05;;;;;;;2.50;1.95;;;20.30;99.90;22.60;93431.00;;;;7374354;19;20584;-75
2023/04/22 09:37:41;;;;;;;4.22;2.00;;;20.70;1.00;23.30;93395.00;;;;7375121;19;20149;-73
2023/04/22 09:40:20;;;;;;;5.25;1.90;;;21.00;1.00;23.60;93433.00;;;;7378977;19;20588;-73
2023/04/22 09:43:03;;;;;;;2.03;1.60;;;21.10;1.00;22.70;93450.00;;;;7374319;19;20161;-75
2023/04/22 09:45:41;;;;;;;1.85;1.52;;;20.80;1.00;22.90;93425.00;;;;7376377;19;20121;-74
2023/04/22 09:48:18;;;;;;;2.60;1.70;;;20.70;99.90;22.80;93407.00;;;;7377639;19;20128;-74
2023/04/22 09:50:49;;;;;;;3.75;2.03;;;21.00;1.00;22.90;93435.00;;;;7380190;19;20145;-76
2023/04/22 09:53:26;;;;;;;3.75;2.00;;;21.00;1.00;23.10;93404.00;;;;7373897;19;20128;-73
2023/04/22 09:56:03;;;;;;;1.75;1.40;;;20.80;1.00;22.90;93398.00;;;;7374914;19;20507;-75
2023/04/22 09:58:42;;;;;;;3.05;1.70;;;20.80;1.00;23.30;93429.00;;;;7376913;19;20184;-75
2023/04/22 10:01:09;;;;;;;3.78;1.85;;;20.80;1.00;23.20;93410.00;;;;7379126;19;20166;-76
2023/04/22 10:03:43;;;;;;;2.38;1.80;;;20.70;1.00;22.30;93453.00;;;;7379351;19;20156;-75
2023/04/22 10:06:17;;;;;;;4.60;1.92;;;20.70;1.00;22.10;93441.00;;;;7379081;19;20129;-75
2023/04/22 10:08:52;;;;;;;2.85;1.60;;;20.20;1.00;22.10;93456.00;;;;7377941;19;20162;-76
2023/04/22 10:11:28;;;;;;;5.78;1.75;;;20.20;1.00;20.90;93445.00;;;;7381154;19;20862;-74
2023/04/22 10:13:55;;;;;;;2.78;1.95;;;19.90;1.00;21.30;93454.00;;;;7379752;19;20129;-73
2023/04/22 10:16:40;;;;;;;3.45;1.60;;;19.80;1.00;20.90;93399.00;;;;7376652;19;20183;-75
2023/04/22 10:19:16;;;;;;;2.42;1.40;;;19.60;1.00;21.30;93402.00;;;;7378964;19;20595;-75
2023/04/22 10:21:57;;;;;;;4.45;1.75;;;19.90;1.00;21.80;93426.00;;;;7379402;19;20605;-74
2023/04/22 10:24:28;;;;;;;6.82;1.70;;;20.30;1.00;22.50;93418.00;;;;7380841;19;20132;-74
2023/04/22 10:27:05;;;;;;;3.15;1.60;;;20.60;1.00;22.40;93426.00;;;;7379402;19;20620;-73
2023/04/22 10:29:41;;;;;;;2.85;1.60;;;20.60;99.90;22.70;93421.00;;;;7378641;19;20449;-74
2023/04/22 10:32:17;;;;;;;5.18;1.83;;;20.90;99.90;23.20;93420.00;;;;7380428;19;20125;-74
2023/04/22 10:35:12;;;;;;;3.75;1.40;;;21.40;99.90;22.60;93435.00;;;;7380068;19;20166;-73
2023/04/22 10:37:48;;;;;;;2.05;1.50;;;21.60;99.90;22.20;93416.00;;;;7380271;19;20585;-75
2023/04/22 10:40:22;;;;;;;6.65;1.60;;;21.40;99.90;22.70;93427.00;;;;7379777;19;20152;-75
2023/04/22 10:43:02;;;;;;;3.20;1.92;;;21.40;99.90;22.40;93429.00;;;;7379115;19;20208;-76
2023/04/22 10:45:37;;;;;;;2.35;1.38;;;21.60;99.90;22.80;93438.00;;;;7378104;19;20631;-75
2023/04/22 10:48:12;;;;;;;3.22;1.50;;;21.60;99.90;22.60;93428.00;;;;7379311;19;20128;-75
2023/04/22 10:50:39;;;;;;;1.55;1.40;;;21.20;1.00;21.90;93393.00;;;;7379051;19;20677;-76
2023/04/22 10:53:45;;;;;;;5.80;1.58;;;21.10;99.90;21.50;93418.00;;;;7377324;19;20157;-75
2023/04/22 10:56:19;;;;;;;2.53;1.55;;;21.30;99.90;22.60;93386.00;;;;7371565;19;20140;-75
2023/04/22 10:58:55;;;;;;;3.30;1.63;;;21.40;99.90;23.10;93432.00;;;;7371224;19;20132;-76
2023/04/22 11:01:26;;;;;;;2.88;1.75;;;22.00;99.90;24.20;93388.00;;;;7373558;19;20171;-75
2023/04/22 11:04:21;;;;;;;3.03;1.60;;;22.20;99.90;25.00;93392.00;;;;7378585;19;20490;-76
2023/04/22 11:07:19;;;;;;;4.53;1.60;;;22.50;99.90;25.30;93412.00;;;;7376818;19;20135;-75
2023/04/22 11:09:58;;;;;;;2.08;1.58;;;23.00;99.90;24.60;93455.00;;;;7379551;19;20621;-77
2023/04/22 11:12:49;;;;;;;1.70;1.52;;;23.20;99.90;22.00;93447.00;;;;7378390;19;20139;-75
2023/04/22 11:15:36;;;;;;;1.88;1.70;;;22.60;99.90;20.80;93403.00;;;;7379144;19;20157;-74
2023/04/22 11:18:17;;;;;;;2.25;1.60;;;22.00;99.90;22.70;93455.00;;;;7381141;19;20482;-72
2023/04/22 11:20:52;;;;;;;3.10;1.40;;;21.80;99.90;22.40;93441.00;;;;7380622;19;20160;-75
2023/04/22 11:23:27;;;;;;;5.53;1.88;;;21.70;99.90;22.60;93461.00;;;;7379899;19;20137;-74
2023/04/22 11:26:05;;;;;;;4.68;1.75;;;21.30;99.90;22.70;93427.00;;;;7379105;19;20152;-74
2023/04/22 11:28:33;;;;;;;4.07;1.58;;;21.20;99.90;22.40;93414.00;;;;7380989;19;20525;-74
2023/04/22 11:31:11;;;;;;;2.65;1.75;;;21.20;99.90;23.00;93426.00;;;;7388798;19;20474;-74
2023/04/22 11:33:39;;;;;;;2.53;1.60;;;21.40;99.90;22.90;93410.00;;;;7386994;19;20142;-74